createdAt,value
2022-08-08T00:07:30.337Z,88.53
2022-08-08T00:18:02.539Z,84.57
2022-08-08T00:28:34.446Z,83.73
2022-08-08T00:38:55.685Z,86.03
2022-08-08T00:49:42.287Z,88.17
2022-08-08T01:00:13.327Z,85.90
2022-08-08T01:11:13.239Z,87.63
2022-08-08T01:22:12.218Z,88.23
2022-08-08T01:33:24.301Z,87.87
2022-08-08T01:43:50.798Z,88.80
2022-08-08T01:55:16.133Z,83.13
2022-08-08T02:04:43.421Z,88.23
2022-08-08T02:15:02.975Z,89.13
2022-08-08T02:25:20.415Z,87.47
2022-08-08T02:36:04.490Z,88.83
2022-08-08T02:46:44.297Z,88.23
2022-08-08T02:57:26.233Z,88.10
2022-08-08T03:08:59.666Z,87.87
2022-08-08T03:19:53.854Z,85.23
2022-08-08T03:30:07.756Z,88.43
2022-08-08T03:40:30.381Z,87.80
2022-08-08T03:50:48.443Z,92.73
2022-08-08T04:01:02.732Z,86.03
2022-08-08T04:11:25.461Z,87.37
2022-08-08T04:21:29.364Z,92.30
2022-08-08T04:31:58.313Z,89.83
2022-08-08T04:42:05.417Z,93.07
2022-08-08T04:52:10.361Z,90.97
2022-08-08T05:02:20.251Z,88.20
2022-08-08T05:12:29.065Z,91.83
2022-08-08T05:22:34.422Z,91.50
2022-08-08T05:32:40.845Z,86.80
2022-08-08T05:42:52.881Z,91.97
2022-08-08T05:52:58.269Z,91.40
2022-08-08T06:03:25.427Z,89.53
2022-08-08T06:13:47.641Z,95.90
2022-08-08T06:24:03.366Z,90.73
2022-08-08T06:34:26.354Z,94.07
2022-08-08T06:44:32.569Z,98.93
2022-08-08T06:54:39.277Z,96.83
2022-08-08T07:04:55.076Z,95.37
2022-08-08T07:15:15.368Z,99.80
2022-08-08T07:25:35.640Z,98.57
2022-08-08T07:35:45.017Z,99.90
2022-08-08T07:46:17.244Z,102.63
2022-08-08T07:56:35.774Z,98.20
2022-08-08T08:06:43.426Z,108.90
2022-08-08T08:16:50.831Z,111.97
2022-08-08T08:26:55.852Z,111.17
2022-08-08T08:37:03.254Z,112.73
2022-08-08T08:47:12.125Z,117.03
2022-08-08T08:57:22.390Z,139.80
2022-08-08T09:07:38.773Z,135.70
2022-08-08T09:17:55.421Z,139.68
2022-08-08T09:28:02.191Z,139.18
2022-08-08T09:38:17.995Z,139.73
2022-08-08T09:48:35.153Z,136.68
2022-08-08T09:58:47.216Z,132.73
2022-08-08T10:08:53.798Z,135.60
2022-08-08T10:19:07.588Z,138.13
2022-08-08T10:29:20.749Z,139.13
2022-08-08T10:39:53.732Z,134.23
2022-08-08T10:50:01.719Z,131.45
2022-08-08T11:00:11.840Z,134.10
2022-08-08T11:10:19.751Z,134.27
2022-08-08T11:20:33.142Z,136.55
2022-08-08T11:30:40.790Z,134.18
2022-08-08T11:40:55.725Z,129.70
2022-08-08T11:51:00.763Z,131.23
2022-08-08T12:01:35.442Z,131.93
2022-08-08T12:11:40.781Z,125.97
2022-08-08T12:22:00.034Z,123.20
2022-08-08T12:32:13.284Z,121.70
2022-08-08T12:42:22.533Z,122.97
2022-08-08T12:52:34.418Z,118.05
2022-08-08T13:02:51.341Z,114.93
2022-08-08T13:13:05.866Z,122.03
2022-08-08T13:23:41.269Z,118.53
2022-08-08T13:33:47.305Z,119.00
2022-08-08T13:43:54.890Z,115.32
2022-08-08T13:54:01.409Z,112.32
2022-08-08T14:04:06.454Z,127.78
2022-08-08T14:14:11.703Z,119.53
2022-08-08T14:24:31.486Z,113.40
2022-08-08T14:34:34.880Z,113.10
2022-08-08T14:44:41.937Z,110.50
2022-08-08T14:54:50.388Z,115.70
2022-08-08T15:04:55.151Z,119.32
2022-08-08T15:15:18.730Z,120.13
2022-08-08T15:25:38.886Z,113.00
2022-08-08T15:35:43.366Z,117.27
2022-08-08T15:45:48.815Z,124.03
2022-08-08T15:55:52.353Z,114.60
2022-08-08T16:06:02.091Z,109.07
2022-08-08T16:16:09.624Z,116.40
2022-08-08T16:26:23.047Z,104.23
2022-08-08T16:36:38.339Z,104.87
2022-08-08T16:46:46.181Z,107.03
2022-08-08T16:57:02.027Z,102.13
2022-08-08T17:07:08.950Z,106.60
2022-08-08T17:17:41.820Z,104.50
2022-08-08T17:27:46.035Z,106.33
2022-08-08T17:37:51.944Z,102.30
2022-08-08T17:47:58.158Z,102.27
2022-08-08T17:58:02.914Z,99.70
2022-08-08T18:08:24.043Z,102.70
2022-08-08T18:18:42.947Z,99.67
2022-08-08T18:28:54.660Z,100.13
2022-08-08T18:38:59.002Z,97.40
2022-08-08T18:49:07.104Z,95.00
2022-08-08T18:59:14.686Z,100.17
2022-08-08T19:09:19.654Z,96.07
2022-08-08T19:19:44.115Z,99.60
2022-08-08T19:30:05.130Z,98.80
2022-08-08T19:40:22.119Z,99.13
2022-08-08T19:50:36.045Z,99.97
2022-08-08T20:00:39.661Z,98.83
2022-08-08T20:10:44.981Z,98.10
2022-08-08T20:20:50.298Z,97.27
2022-08-08T20:30:59.879Z,96.27
2022-08-08T20:41:05.605Z,98.67
2022-08-08T20:51:21.934Z,98.30
2022-08-08T21:01:26.064Z,95.33
2022-08-08T21:11:50.867Z,96.47
2022-08-08T21:21:57.098Z,93.97
2022-08-08T21:32:01.938Z,94.50
2022-08-08T21:42:05.558Z,96.43
2022-08-08T21:54:36.226Z,96.13
2022-08-08T22:02:37.644Z,93.20
2022-08-08T22:12:42.770Z,90.77
2022-08-08T22:22:52.711Z,95.63
2022-08-08T22:32:57.856Z,98.57
2022-08-08T22:43:01.616Z,92.27
2022-08-08T22:54:30.866Z,92.27
2022-08-08T23:03:53.847Z,108.53
2022-08-08T23:14:01.749Z,97.73
2022-08-08T23:24:06.425Z,98.67
2022-08-08T23:34:18.642Z,102.77
2022-08-08T23:44:23.862Z,94.13
2022-08-08T23:54:42.399Z,91.47
